createdAt,value
2022-08-17T00:05:08.538Z,99483.02
2022-08-17T00:13:35.947Z,99470.73
2022-08-17T00:22:32.352Z,99481.66
2022-08-17T00:30:50.849Z,99477.05
2022-08-17T00:39:14.317Z,99475.74
2022-08-17T00:47:37.232Z,99486.57
2022-08-17T00:56:04.838Z,99499.77
2022-08-17T01:04:30.231Z,99495.83
2022-08-17T01:12:53.666Z,99496.73
2022-08-17T01:21:26.591Z,99495.60
2022-08-17T01:29:58.539Z,99498.09
2022-08-17T01:38:27.200Z,99503.64
2022-08-17T01:46:50.506Z,99508.20
2022-08-17T01:55:23.457Z,99502.27
2022-08-17T02:03:56.334Z,99503.05
2022-08-17T02:12:39.313Z,99501.84
2022-08-17T02:21:04.025Z,99504.07
2022-08-17T02:29:27.024Z,99509.41
2022-08-17T02:37:51.915Z,99509.66
2022-08-17T02:46:19.715Z,99516.80
2022-08-17T02:54:42.627Z,99521.69
2022-08-17T03:03:06.744Z,99518.33
2022-08-17T03:11:29.935Z,99521.86
2022-08-17T03:19:52.760Z,99520.85
2022-08-17T03:28:17.265Z,99523.21
2022-08-17T03:36:40.260Z,99530.78
2022-08-17T03:45:06.231Z,99527.28
2022-08-17T03:53:47.993Z,99535.14
2022-08-17T04:02:19.810Z,99538.89
2022-08-17T04:10:45.094Z,99552.46
2022-08-17T04:19:08.623Z,99560.71
2022-08-17T04:27:31.926Z,99557.75
2022-08-17T04:36:01.004Z,99549.61
2022-08-17T04:44:37.125Z,99562.58
2022-08-17T04:53:01.427Z,99563.24
2022-08-17T05:01:28.288Z,99558.02
2022-08-17T05:09:51.190Z,99566.27
2022-08-17T05:18:14.167Z,99562.65
2022-08-17T05:26:37.050Z,99567.75
2022-08-17T05:35:01.826Z,99570.47
2022-08-17T05:43:28.327Z,99572.39
2022-08-17T05:52:20.768Z,99577.39
2022-08-17T06:01:17.878Z,99584.25
2022-08-17T06:09:53.939Z,99587.87
2022-08-17T06:18:19.385Z,99586.73
2022-08-17T06:26:45.858Z,99587.59
2022-08-17T06:35:12.008Z,99590.23
2022-08-17T06:44:02.747Z,99591.55
2022-08-17T06:52:46.163Z,99600.16
2022-08-17T07:01:23.443Z,99599.30
2022-08-17T07:09:46.396Z,99595.91
2022-08-17T07:18:10.361Z,99593.14
2022-08-17T07:26:34.161Z,99595.23
2022-08-17T07:35:00.014Z,99592.27
2022-08-17T07:43:41.366Z,99596.27
2022-08-17T07:52:24.319Z,99603.44
2022-08-17T08:01:11.942Z,99603.67
2022-08-17T08:09:41.604Z,99607.02
2022-08-17T08:18:45.927Z,99609.52
2022-08-17T08:27:22.258Z,99612.11
2022-08-17T08:35:53.868Z,99613.25
2022-08-17T08:45:01.373Z,99620.25
2022-08-17T08:53:49.177Z,99622.83
2022-08-17T09:02:26.283Z,99619.69
2022-08-17T09:11:04.459Z,99615.75
2022-08-17T09:20:27.381Z,99613.67
2022-08-17T09:28:56.371Z,99613.36
2022-08-17T09:37:19.479Z,99618.71
2022-08-17T09:45:52.332Z,99620.12
2022-08-17T09:54:41.760Z,99625.92
2022-08-17T10:03:16.595Z,99627.96
2022-08-17T10:12:10.045Z,99633.19
2022-08-17T10:21:19.884Z,99632.73
2022-08-17T10:29:54.272Z,99636.38
2022-08-17T10:38:40.253Z,99640.26
2022-08-17T10:47:15.609Z,99641.52
2022-08-17T10:55:39.418Z,99639.91
2022-08-17T11:04:30.324Z,99640.63
2022-08-17T11:13:24.272Z,99639.77
2022-08-17T11:21:56.316Z,99635.38
2022-08-17T11:30:48.876Z,99632.55
2022-08-17T11:39:30.905Z,99635.19
2022-08-17T11:48:32.895Z,99628.03
2022-08-17T11:57:02.537Z,99639.16
2022-08-17T12:05:34.444Z,99631.33
2022-08-17T12:14:00.792Z,99631.58
2022-08-17T12:22:40.070Z,99628.29
2022-08-17T12:31:14.164Z,99634.77
2022-08-17T12:39:39.716Z,99632.29
2022-08-17T12:48:11.093Z,99643.45
2022-08-17T12:56:34.207Z,99650.10
2022-08-17T13:05:02.172Z,99643.02
2022-08-17T13:13:31.596Z,99645.50
2022-08-17T13:21:59.162Z,99649.94
2022-08-17T13:30:30.052Z,99647.98
2022-08-17T13:39:13.647Z,99644.37
2022-08-17T13:47:36.554Z,99638.14
2022-08-17T13:56:00.843Z,99630.09
2022-08-17T14:04:32.024Z,99633.14
2022-08-17T14:12:55.019Z,99635.66
2022-08-17T14:21:18.024Z,99629.80
2022-08-17T14:29:45.516Z,99627.59
2022-08-17T14:38:08.307Z,99634.27
2022-08-17T14:46:33.263Z,99645.27
2022-08-17T14:54:57.547Z,99648.23
2022-08-17T15:03:20.636Z,99646.89
2022-08-17T15:11:43.558Z,99648.48
2022-08-17T15:20:14.768Z,99650.82
2022-08-17T15:28:38.732Z,99657.17
2022-08-17T15:37:02.871Z,99644.84
2022-08-17T15:45:28.274Z,99642.05
2022-08-17T15:53:56.747Z,99633.70
2022-08-17T16:03:46.977Z,99627.25
2022-08-17T16:11:11.849Z,99637.13
2022-08-17T16:19:34.731Z,99643.52
2022-08-17T16:27:57.684Z,99653.08
2022-08-17T16:36:24.718Z,99654.68
2022-08-17T16:44:50.799Z,99661.48
2022-08-17T16:53:17.932Z,99666.44
2022-08-17T17:01:43.296Z,99667.65
2022-08-17T17:10:13.418Z,99678.83
2022-08-17T17:19:00.479Z,99682.19
2022-08-17T17:28:05.622Z,99689.46
2022-08-17T17:36:55.380Z,99695.59
2022-08-17T17:45:26.636Z,99703.66
2022-08-17T17:54:01.426Z,99722.60
2022-08-17T18:02:52.933Z,99726.21
2022-08-17T18:11:37.960Z,99726.55
2022-08-17T18:20:07.189Z,99730.28
2022-08-17T18:28:39.853Z,99738.34
2022-08-17T18:37:06.398Z,99743.56
2022-08-17T18:45:42.798Z,99750.30
2022-08-17T18:54:09.068Z,99750.20
2022-08-17T19:02:45.027Z,99755.31
2022-08-17T19:11:27.591Z,99759.48
2022-08-17T19:20:01.597Z,99757.15
2022-08-17T19:28:47.982Z,99756.67
2022-08-17T19:37:30.615Z,99763.15
2022-08-17T19:46:18.801Z,99767.67
2022-08-17T19:54:56.715Z,99766.20
2022-08-17T20:03:44.308Z,99776.51
2022-08-17T20:12:29.037Z,99778.69
2022-08-17T20:21:32.723Z,99783.70
2022-08-17T20:29:55.590Z,99784.10
2022-08-17T20:38:44.226Z,99784.27
2022-08-17T20:47:11.252Z,99794.98
2022-08-17T20:55:39.359Z,99797.92
2022-08-17T21:04:50.964Z,99801.71
2022-08-17T21:13:14.109Z,99816.86
2022-08-17T21:22:00.961Z,99822.52
2022-08-17T21:30:47.767Z,99830.73
2022-08-17T21:39:17.019Z,99832.38
2022-08-17T21:47:53.360Z,99840.57
2022-08-17T21:56:34.912Z,99843.54
2022-08-17T22:05:03.126Z,99838.32
2022-08-17T22:13:29.651Z,99837.29
2022-08-17T22:22:27.968Z,99841.76
2022-08-17T22:31:04.990Z,99819.79
2022-08-17T22:39:29.388Z,99819.58
2022-08-17T22:48:02.213Z,99817.52
2022-08-17T22:56:44.696Z,99803.09
2022-08-17T23:05:13.775Z,99813.79
2022-08-17T23:13:38.874Z,99800.60
2022-08-17T23:22:06.497Z,99788.95
2022-08-17T23:30:34.410Z,99790.78
2022-08-17T23:38:58.336Z,99774.96
2022-08-17T23:47:22.463Z,99768.06
2022-08-17T23:55:45.344Z,99764.51
